createdAt,value
2023-04-19T00:01:49.832Z,29.60
2023-04-19T00:04:19.901Z,29.70
2023-04-19T00:06:50.218Z,29.70
2023-04-19T00:09:20.184Z,29.90
2023-04-19T00:11:50.094Z,29.90
2023-04-19T00:14:19.841Z,29.90
2023-04-19T00:16:49.938Z,29.90
2023-04-19T00:19:19.674Z,30.00
2023-04-19T00:21:49.926Z,30.00
2023-04-19T00:24:21.334Z,30.10
2023-04-19T00:26:51.262Z,30.10
2023-04-19T00:29:20.956Z,30.20
2023-04-19T00:31:51.283Z,30.20
2023-04-19T00:34:21.009Z,30.20
2023-04-19T00:36:51.635Z,30.20
2023-04-19T00:39:21.747Z,30.20
2023-04-19T00:41:51.422Z,30.40
2023-04-19T00:44:21.670Z,30.40
2023-04-19T00:46:51.718Z,30.30
2023-04-19T00:49:23.122Z,30.50
2023-04-19T00:51:53.851Z,30.50
2023-04-19T00:54:24.016Z,30.50
2023-04-19T00:56:54.084Z,30.70
2023-04-19T00:59:24.544Z,30.60
2023-04-19T01:01:54.862Z,30.70
2023-04-19T01:04:25.315Z,30.90
2023-04-19T01:06:56.247Z,30.90
2023-04-19T01:09:25.988Z,31.00
2023-04-19T01:11:56.141Z,31.20
2023-04-19T01:14:25.854Z,31.30
2023-04-19T01:16:55.682Z,31.40
2023-04-19T01:19:25.409Z,31.50
2023-04-19T01:21:55.464Z,31.50
2023-04-19T01:24:25.144Z,31.70
2023-04-19T01:26:54.996Z,31.80
2023-04-19T01:29:24.680Z,31.90
2023-04-19T01:31:55.090Z,32.00
2023-04-19T01:34:25.119Z,32.00
2023-04-19T01:36:55.609Z,32.10
2023-04-19T01:39:27.579Z,32.20
2023-04-19T01:41:57.414Z,32.30
2023-04-19T01:44:27.121Z,32.40
2023-04-19T01:46:57.629Z,32.50
2023-04-19T01:49:27.568Z,32.60
2023-04-19T01:51:57.241Z,32.70
2023-04-19T01:54:27.298Z,32.90
2023-04-19T01:56:56.936Z,32.80
2023-04-19T01:59:27.071Z,32.90
2023-04-19T02:01:56.852Z,33.10
2023-04-19T02:04:27.380Z,33.10
2023-04-19T02:06:57.120Z,33.10
2023-04-19T02:09:26.719Z,33.10
2023-04-19T02:11:56.690Z,33.10
2023-04-19T02:14:26.325Z,33.20
2023-04-19T02:16:56.752Z,33.40
2023-04-19T02:19:26.652Z,33.50
2023-04-19T02:21:59.194Z,33.50
2023-04-19T02:24:29.310Z,33.50
2023-04-19T02:26:59.594Z,33.70
2023-04-19T02:29:29.425Z,33.80
2023-04-19T02:32:00.230Z,33.80
2023-04-19T02:34:30.403Z,33.90
2023-04-19T02:37:03.179Z,34.10
2023-04-19T02:39:33.682Z,34.00
2023-04-19T02:42:03.842Z,34.00
2023-04-19T02:44:34.805Z,34.00
2023-04-19T02:47:04.573Z,34.00
2023-04-19T02:49:39.429Z,34.40
2023-04-19T02:52:10.112Z,34.30
2023-04-19T02:54:42.662Z,34.60
2023-04-19T02:57:13.046Z,34.70
2023-04-19T02:59:45.281Z,34.70
2023-04-19T03:02:15.390Z,34.90
2023-04-19T03:04:45.082Z,35.00
2023-04-19T03:07:15.270Z,35.00
2023-04-19T03:09:44.944Z,35.20
2023-04-19T03:12:15.271Z,35.10
2023-04-19T03:14:45.454Z,35.30
2023-04-19T03:17:15.905Z,35.40
2023-04-19T03:19:45.788Z,35.50
2023-04-19T03:22:16.150Z,35.60
2023-04-19T03:24:45.938Z,35.70
2023-04-19T03:27:23.994Z,35.70
2023-04-19T03:29:59.783Z,35.80
2023-04-19T03:32:31.857Z,35.70
2023-04-19T03:35:02.481Z,35.90
2023-04-19T03:37:32.419Z,36.20
2023-04-19T03:40:02.484Z,36.20
2023-04-19T03:42:36.383Z,36.30
2023-04-19T03:45:12.863Z,36.20
2023-04-19T03:47:48.091Z,36.10
2023-04-19T03:50:18.300Z,36.30
2023-04-19T03:52:52.085Z,36.30
2023-04-19T03:55:22.166Z,36.50
2023-04-19T03:57:52.099Z,36.50
2023-04-19T04:00:31.764Z,36.80
2023-04-19T04:03:03.576Z,36.80
2023-04-19T04:05:34.253Z,36.90
2023-04-19T04:08:04.460Z,36.90
2023-04-19T04:10:34.558Z,36.90
2023-04-19T04:13:04.653Z,37.00
2023-04-19T04:15:43.237Z,37.00
2023-04-19T04:18:15.186Z,37.30
2023-04-19T04:20:46.368Z,37.40
2023-04-19T04:23:16.458Z,37.20
2023-04-19T04:26:01.854Z,37.20
2023-04-19T04:28:47.478Z,37.50
2023-04-19T04:31:19.552Z,37.70
2023-04-19T04:33:50.869Z,37.80
2023-04-19T04:36:23.546Z,37.70
2023-04-19T04:38:55.492Z,37.90
2023-04-19T04:41:26.756Z,37.90
2023-04-19T04:44:12.219Z,37.90
2023-04-19T04:46:44.785Z,38.00
2023-04-19T04:49:19.290Z,37.50
2023-04-19T04:51:49.192Z,37.90
2023-04-19T04:54:19.260Z,38.00
2023-04-19T04:56:50.818Z,38.20
2023-04-19T04:59:20.800Z,38.30
2023-04-19T05:01:52.597Z,38.20
2023-04-19T05:04:23.101Z,38.40
2023-04-19T05:06:52.763Z,38.40
2023-04-19T05:09:27.449Z,38.50
2023-04-19T05:11:57.492Z,38.70
2023-04-19T05:14:27.561Z,38.80
2023-04-19T05:16:57.884Z,38.70
2023-04-19T05:19:27.721Z,38.50
2023-04-19T05:22:04.080Z,38.80
2023-04-19T05:24:33.923Z,39.00
2023-04-19T05:27:03.861Z,39.10
2023-04-19T05:29:34.223Z,39.00
2023-04-19T05:32:03.939Z,39.10
2023-04-19T05:34:38.129Z,39.30
2023-04-19T05:37:08.349Z,39.40
2023-04-19T05:39:38.555Z,39.30
2023-04-19T05:42:08.514Z,39.40
2023-04-19T05:44:38.552Z,39.10
2023-04-19T05:47:08.957Z,39.40
2023-04-19T05:49:58.314Z,39.10
2023-04-19T05:52:33.706Z,39.00
2023-04-19T05:55:04.486Z,39.50
2023-04-19T05:57:36.443Z,39.60
2023-04-19T06:00:07.082Z,39.50
2023-04-19T06:02:45.510Z,39.50
2023-04-19T06:05:17.063Z,39.50
2023-04-19T06:07:55.152Z,39.60
2023-04-19T06:10:28.972Z,39.70
2023-04-19T06:13:03.994Z,40.00
2023-04-19T06:15:33.809Z,40.10
2023-04-19T06:18:03.972Z,40.10
2023-04-19T06:20:33.630Z,40.10
2023-04-19T06:23:03.497Z,40.30
2023-04-19T06:25:33.179Z,40.10
2023-04-19T06:28:03.904Z,40.00
2023-04-19T06:30:33.594Z,40.00
2023-04-19T06:33:03.621Z,40.00
2023-04-19T06:35:34.118Z,40.10
2023-04-19T06:38:06.212Z,40.40
2023-04-19T06:40:38.681Z,40.20
2023-04-19T06:43:08.662Z,40.40
2023-04-19T06:45:38.349Z,40.50
2023-04-19T06:48:08.364Z,40.60
2023-04-19T06:50:38.115Z,40.70
2023-04-19T06:53:08.282Z,40.70
2023-04-19T06:55:38.251Z,40.60
2023-04-19T06:58:12.034Z,40.40
2023-04-19T07:00:42.008Z,40.20
2023-04-19T07:03:12.514Z,40.20
2023-04-19T07:05:43.153Z,40.30
2023-04-19T07:08:12.963Z,40.40
2023-04-19T07:10:45.188Z,40.40
2023-04-19T07:13:15.265Z,40.50
2023-04-19T07:15:45.369Z,40.50
2023-04-19T07:18:19.443Z,40.70
2023-04-19T07:20:51.136Z,40.60
2023-04-19T07:23:22.122Z,40.50
2023-04-19T07:25:51.857Z,40.50
2023-04-19T07:28:21.677Z,40.60
2023-04-19T07:30:51.383Z,40.60
2023-04-19T07:33:21.305Z,40.50
2023-04-19T07:35:51.212Z,40.40
2023-04-19T07:38:21.212Z,40.50
2023-04-19T07:40:51.506Z,40.70
2023-04-19T07:43:21.445Z,40.80
2023-04-19T07:45:51.219Z,40.90
2023-04-19T07:48:21.331Z,40.60
2023-04-19T07:50:51.789Z,40.70
2023-04-19T07:53:22.074Z,40.50
2023-04-19T07:55:51.876Z,40.40
2023-04-19T07:58:21.918Z,40.40
2023-04-19T08:00:51.725Z,40.40
2023-04-19T08:03:22.117Z,40.50
2023-04-19T08:05:52.384Z,40.30
2023-04-19T08:08:22.504Z,40.40
2023-04-19T08:10:52.380Z,40.70
2023-04-19T08:13:23.494Z,40.70
2023-04-19T08:16:27.123Z,40.90
2023-04-19T08:18:43.884Z,40.70
2023-04-19T08:21:13.764Z,40.20
2023-04-19T08:23:48.227Z,40.30
2023-04-19T08:26:18.400Z,40.30
2023-04-19T08:28:48.156Z,40.30
2023-04-19T08:31:18.443Z,40.00
2023-04-19T08:33:48.850Z,40.00
2023-04-19T08:36:22.442Z,39.90
2023-04-19T08:39:06.935Z,40.10
2023-04-19T08:41:42.996Z,40.00
2023-04-19T08:44:17.739Z,40.20
2023-04-19T08:46:53.399Z,39.90
2023-04-19T08:49:24.126Z,40.20
2023-04-19T08:51:54.929Z,39.70
2023-04-19T08:54:25.507Z,40.00
2023-04-19T08:56:56.188Z,39.90
2023-04-19T08:59:25.861Z,39.70
2023-04-19T09:01:57.752Z,39.90
2023-04-19T09:07:04.535Z,39.90
2023-04-19T09:09:40.815Z,39.90
2023-04-19T09:12:19.999Z,39.90
2023-04-19T09:15:01.314Z,39.90
2023-04-19T09:17:34.541Z,39.70
2023-04-19T09:20:06.526Z,39.70
2023-04-19T09:22:40.574Z,39.70
2023-04-19T09:25:41.415Z,39.80
2023-04-19T09:28:15.937Z,39.70
2023-04-19T09:31:00.004Z,39.80
2023-04-19T09:33:43.795Z,39.80
2023-04-19T09:36:38.144Z,39.60
2023-04-19T09:39:12.404Z,39.60
2023-04-19T09:42:03.579Z,39.60
2023-04-19T09:47:33.562Z,39.40
2023-04-19T09:50:22.762Z,39.30
2023-04-19T09:53:19.678Z,39.30
2023-04-19T09:56:01.476Z,39.40
2023-04-19T09:58:47.011Z,39.30
2023-04-19T10:01:24.188Z,39.30
2023-04-19T10:03:55.555Z,39.20
2023-04-19T10:06:40.430Z,39.20
2023-04-19T10:09:18.975Z,39.20
2023-04-19T10:11:58.056Z,39.10
2023-04-19T10:14:40.098Z,39.20
2023-04-19T10:17:16.422Z,39.20
2023-04-19T10:19:53.463Z,39.30
2023-04-19T10:22:31.201Z,39.50
2023-04-19T10:25:19.794Z,39.30
2023-04-19T10:27:54.930Z,39.00
2023-04-19T10:30:30.582Z,39.10
2023-04-19T10:33:06.206Z,39.00
2023-04-19T10:35:40.014Z,38.90
2023-04-19T10:38:21.403Z,38.80
2023-04-19T10:41:05.245Z,38.70
2023-04-19T10:43:39.681Z,38.80
2023-04-19T10:46:17.515Z,38.80
2023-04-19T10:49:05.304Z,38.80
2023-04-19T10:51:38.569Z,38.60
2023-04-19T10:54:34.341Z,38.60
2023-04-19T10:57:07.222Z,38.50
2023-04-19T10:59:41.020Z,38.40
2023-04-19T11:02:34.134Z,38.30
2023-04-19T11:05:17.394Z,38.40
2023-04-19T11:07:52.284Z,38.30
2023-04-19T11:10:35.232Z,38.20
2023-04-19T11:13:10.762Z,38.10
2023-04-19T11:15:47.588Z,37.90
2023-04-19T11:18:37.365Z,37.90
2023-04-19T11:21:16.994Z,38.20
2023-04-19T11:23:49.457Z,38.10
2023-04-19T11:26:23.052Z,38.30
2023-04-19T11:29:00.490Z,38.20
2023-04-19T11:31:35.698Z,38.20
2023-04-19T11:34:06.173Z,38.10
2023-04-19T11:36:38.325Z,38.10
2023-04-19T11:39:12.728Z,37.90
2023-04-19T11:41:42.906Z,37.90
2023-04-19T11:44:26.155Z,38.00
2023-04-19T11:47:06.573Z,37.80
2023-04-19T11:49:36.769Z,37.90
2023-04-19T11:52:08.830Z,37.90
2023-04-19T11:54:38.957Z,38.10
2023-04-19T11:57:10.237Z,38.00
2023-04-19T11:59:40.991Z,37.90
2023-04-19T12:02:13.038Z,38.00
2023-04-19T12:04:43.457Z,38.10
2023-04-19T12:07:13.334Z,38.00
2023-04-19T12:09:43.284Z,38.00
2023-04-19T12:12:14.627Z,37.90
2023-04-19T12:14:54.499Z,37.70
2023-04-19T12:17:24.585Z,37.80
2023-04-19T12:19:54.381Z,37.80
2023-04-19T12:22:25.809Z,37.80
2023-04-19T12:24:57.448Z,37.80
2023-04-19T12:27:27.710Z,37.80
2023-04-19T12:29:57.533Z,37.80
2023-04-19T12:32:27.578Z,37.60
2023-04-19T12:34:57.328Z,37.50
2023-04-19T12:37:27.329Z,37.40
2023-04-19T12:39:57.247Z,37.40
2023-04-19T12:42:27.929Z,37.40
2023-04-19T12:44:57.697Z,37.40
2023-04-19T12:47:27.657Z,37.50
2023-04-19T12:49:59.059Z,37.40
2023-04-19T12:52:29.407Z,37.30
2023-04-19T12:54:59.110Z,37.20
2023-04-19T12:57:31.484Z,37.10
2023-04-19T13:00:02.591Z,37.10
2023-04-19T13:02:32.429Z,37.10
2023-04-19T13:05:02.634Z,36.90
2023-04-19T13:07:34.103Z,36.90
2023-04-19T13:10:05.087Z,36.80
2023-04-19T13:12:34.976Z,36.90
2023-04-19T13:15:05.284Z,36.90
2023-04-19T13:17:35.539Z,36.80
2023-04-19T13:20:06.114Z,36.80
2023-04-19T13:22:36.275Z,36.70
2023-04-19T13:25:06.745Z,36.70
2023-04-19T13:27:39.664Z,36.70
2023-04-19T13:30:10.317Z,36.50
2023-04-19T13:32:40.228Z,36.60
2023-04-19T13:35:10.662Z,36.60
2023-04-19T13:37:41.806Z,36.40
2023-04-19T13:40:19.307Z,36.40
2023-04-19T13:42:49.966Z,36.40
2023-04-19T13:45:19.740Z,36.20
2023-04-19T13:47:49.865Z,35.90
2023-04-19T13:50:19.606Z,35.90
2023-04-19T13:52:49.572Z,35.90
2023-04-19T13:55:19.543Z,35.80
2023-04-19T13:57:49.667Z,35.80
2023-04-19T14:00:20.167Z,35.80
2023-04-19T14:02:52.212Z,35.90
2023-04-19T14:05:23.287Z,35.90
2023-04-19T14:07:53.866Z,35.80
2023-04-19T14:10:24.092Z,35.90
2023-04-19T14:12:55.748Z,35.90
2023-04-19T14:15:27.099Z,35.80
2023-04-19T14:17:57.367Z,36.20
2023-04-19T14:20:29.265Z,36.10
2023-04-19T14:23:01.744Z,36.30
2023-04-19T14:25:31.853Z,36.20
2023-04-19T14:28:01.686Z,36.40
2023-04-19T14:30:32.071Z,36.20
2023-04-19T14:33:03.691Z,36.20
2023-04-19T14:35:33.587Z,36.00
2023-04-19T14:38:03.775Z,36.00
2023-04-19T14:40:33.464Z,35.90
2023-04-19T14:43:03.501Z,35.80
2023-04-19T14:45:33.258Z,35.50
2023-04-19T14:48:03.237Z,35.20
2023-04-19T14:50:32.923Z,35.20
2023-04-19T14:53:02.810Z,35.10
2023-04-19T14:55:32.454Z,35.30
2023-04-19T14:58:03.105Z,35.40
2023-04-19T15:00:33.010Z,35.60
2023-04-19T15:03:03.961Z,35.60
2023-04-19T15:05:40.749Z,35.40
2023-04-19T15:08:23.387Z,35.70
2023-04-19T15:10:59.460Z,35.60
2023-04-19T15:13:32.800Z,35.30
2023-04-19T15:16:05.301Z,35.10
2023-04-19T15:18:35.212Z,35.20
2023-04-19T15:21:08.134Z,35.50
2023-04-19T15:23:38.698Z,35.50
2023-04-19T15:26:08.448Z,35.40
2023-04-19T15:28:38.396Z,35.20
2023-04-19T15:31:12.577Z,35.30
2023-04-19T15:33:42.587Z,35.40
2023-04-19T15:36:12.393Z,35.20
2023-04-19T15:38:43.908Z,35.20
2023-04-19T15:41:14.072Z,35.10
2023-04-19T15:43:43.823Z,35.00
2023-04-19T15:46:15.158Z,35.00
2023-04-19T15:48:48.211Z,34.90
2023-04-19T15:51:18.298Z,34.90
2023-04-19T15:53:48.033Z,35.10
2023-04-19T15:56:18.067Z,34.80
2023-04-19T15:58:47.787Z,34.70
2023-04-19T16:01:19.202Z,34.70
2023-04-19T16:03:49.839Z,34.70
2023-04-19T16:06:19.747Z,34.70
2023-04-19T16:08:49.744Z,34.60
2023-04-19T16:11:19.488Z,34.50
2023-04-19T16:13:50.009Z,34.40
2023-04-19T16:16:19.869Z,34.30
2023-04-19T16:18:50.064Z,34.20
2023-04-19T16:21:19.885Z,34.10
2023-04-19T16:23:50.072Z,34.20
2023-04-19T16:26:19.788Z,34.20
2023-04-19T16:28:50.703Z,34.10
2023-04-19T16:31:20.711Z,34.10
2023-04-19T16:33:50.391Z,34.00
2023-04-19T16:36:24.243Z,33.90
2023-04-19T16:38:54.210Z,33.90
2023-04-19T16:41:23.928Z,33.90
2023-04-19T16:43:55.988Z,33.90
2023-04-19T16:46:27.594Z,33.70
2023-04-19T16:49:00.999Z,33.70
2023-04-19T16:51:31.060Z,33.60
2023-04-19T16:54:00.769Z,33.70
2023-04-19T16:56:31.639Z,33.70
2023-04-19T16:59:01.549Z,33.60
2023-04-19T17:01:31.375Z,33.60
2023-04-19T17:04:02.325Z,33.70
2023-04-19T17:06:33.612Z,33.50
2023-04-19T17:09:07.670Z,33.50
2023-04-19T17:11:37.647Z,33.50
2023-04-19T17:14:07.383Z,33.40
2023-04-19T17:16:37.494Z,33.30
2023-04-19T17:19:07.222Z,33.30
2023-04-19T17:21:37.262Z,33.10
2023-04-19T17:24:07.533Z,33.10
2023-04-19T17:26:37.661Z,33.00
2023-04-19T17:29:07.802Z,33.10
2023-04-19T17:31:37.940Z,33.10
2023-04-19T17:34:07.750Z,32.90
2023-04-19T17:36:37.860Z,33.00
2023-04-19T17:39:09.384Z,33.00
2023-04-19T17:41:39.605Z,32.90
2023-04-19T17:44:09.313Z,33.00
2023-04-19T17:46:41.157Z,32.90
2023-04-19T17:49:11.433Z,33.00
2023-04-19T17:51:41.616Z,32.90
2023-04-19T17:54:11.462Z,32.80
2023-04-19T17:56:41.142Z,32.80
2023-04-19T17:59:11.269Z,32.70
2023-04-19T18:01:41.864Z,32.70
2023-04-19T18:04:15.530Z,32.70
2023-04-19T18:06:46.253Z,32.70
2023-04-19T18:09:16.351Z,32.70
2023-04-19T18:11:46.795Z,32.60
2023-04-19T18:14:16.850Z,32.60
2023-04-19T18:16:47.027Z,32.60
2023-04-19T18:19:17.245Z,32.60
2023-04-19T18:21:47.193Z,32.60
2023-04-19T18:24:17.109Z,32.60
2023-04-19T18:26:47.168Z,32.60
2023-04-19T18:29:17.533Z,32.50
2023-04-19T18:31:47.578Z,32.40
2023-04-19T18:34:20.518Z,32.40
2023-04-19T18:36:50.690Z,32.40
2023-04-19T18:39:20.425Z,32.40
2023-04-19T18:41:50.319Z,32.30
2023-04-19T18:44:43.854Z,32.20
2023-04-19T18:47:10.753Z,32.20
2023-04-19T18:49:40.699Z,32.20
2023-04-19T18:52:10.520Z,32.20
2023-04-19T18:54:40.583Z,32.20
2023-04-19T18:59:49.089Z,32.20
2023-04-19T19:02:18.969Z,32.20
2023-04-19T19:04:56.759Z,32.10
2023-04-19T19:10:09.849Z,32.00
2023-04-19T19:12:48.561Z,32.00
2023-04-19T19:15:18.821Z,31.90
2023-04-19T19:17:50.168Z,31.90
2023-04-19T19:20:21.421Z,31.90
2023-04-19T19:22:51.699Z,31.90
2023-04-19T19:25:21.873Z,31.80
2023-04-19T19:30:31.023Z,31.70
2023-04-19T19:33:01.438Z,31.70
2023-04-19T19:35:31.329Z,31.70
2023-04-19T19:38:01.246Z,31.70
2023-04-19T19:40:32.725Z,31.60
2023-04-19T19:43:04.066Z,31.60
2023-04-19T19:45:33.934Z,31.60
2023-04-19T19:48:04.696Z,31.60
2023-04-19T19:51:00.889Z,31.60
2023-04-19T19:53:24.825Z,31.50
2023-04-19T19:55:56.621Z,31.60
2023-04-19T19:58:48.221Z,31.40
2023-04-19T20:01:17.129Z,31.50
2023-04-19T20:03:47.063Z,31.50
2023-04-19T20:07:07.805Z,31.50
2023-04-19T20:09:07.263Z,31.40
2023-04-19T20:11:37.116Z,31.40
2023-04-19T20:14:08.030Z,31.40
2023-04-19T20:16:37.745Z,31.40
2023-04-19T20:19:11.320Z,31.40
2023-04-19T20:21:41.464Z,31.30
2023-04-19T20:24:11.196Z,31.30
2023-04-19T20:26:41.644Z,31.30
2023-04-19T20:29:11.269Z,31.40
2023-04-19T20:31:41.328Z,31.30
2023-04-19T20:34:10.985Z,31.20
2023-04-19T20:36:41.710Z,31.20
2023-04-19T20:39:14.874Z,31.10
2023-04-19T20:41:49.235Z,31.10
2023-04-19T20:44:21.626Z,31.10
2023-04-19T20:46:53.518Z,31.00
2023-04-19T20:49:24.172Z,31.00
2023-04-19T20:51:53.846Z,31.00
2023-04-19T20:54:23.809Z,31.10
2023-04-19T20:56:55.430Z,30.90
2023-04-19T20:59:25.346Z,31.00
2023-04-19T21:01:55.002Z,31.00
2023-04-19T21:04:25.062Z,31.00
2023-04-19T21:06:54.816Z,30.90
2023-04-19T21:09:24.757Z,31.00
2023-04-19T21:11:54.662Z,30.90
2023-04-19T21:14:24.491Z,30.90
2023-04-19T21:16:54.202Z,30.90
2023-04-19T21:19:24.140Z,30.90
2023-04-19T21:21:53.910Z,30.80
2023-04-19T21:24:23.846Z,30.80
2023-04-19T21:26:53.559Z,30.80
2023-04-19T21:29:23.616Z,30.80
2023-04-19T21:31:53.608Z,30.80
2023-04-19T21:34:23.569Z,30.70
2023-04-19T21:36:53.273Z,30.70
2023-04-19T21:39:23.195Z,30.70
2023-04-19T21:41:52.837Z,30.70
2023-04-19T21:44:22.727Z,30.70
2023-04-19T21:46:52.551Z,30.70
2023-04-19T21:49:22.559Z,30.70
2023-04-19T21:51:52.812Z,30.70
2023-04-19T21:54:32.850Z,30.70
2023-04-19T21:57:04.346Z,30.70
2023-04-19T21:59:37.486Z,30.60
2023-04-19T22:02:07.686Z,30.60
2023-04-19T22:04:38.176Z,30.60
2023-04-19T22:07:09.163Z,30.50
2023-04-19T22:09:38.834Z,30.50
2023-04-19T22:12:10.692Z,30.40
2023-04-19T22:14:40.896Z,30.50
2023-04-19T22:17:11.653Z,30.60
2023-04-19T22:19:41.485Z,30.60
2023-04-19T22:22:11.142Z,30.40
2023-04-19T22:24:53.869Z,30.40
2023-04-19T22:27:27.590Z,30.40
2023-04-19T22:29:57.289Z,30.50
2023-04-19T22:32:27.395Z,30.50
2023-04-19T22:34:57.331Z,30.40
2023-04-19T22:37:27.210Z,30.40
2023-04-19T22:39:57.002Z,30.40
2023-04-19T22:42:27.192Z,30.40
2023-04-19T22:44:56.936Z,30.30
2023-04-19T22:47:27.266Z,30.30
2023-04-19T22:49:57.458Z,30.20
2023-04-19T22:52:27.887Z,30.30
2023-04-19T22:54:57.574Z,30.30
2023-04-19T22:57:27.428Z,30.20
2023-04-19T22:59:57.122Z,30.20
2023-04-19T23:02:27.548Z,30.20
2023-04-19T23:05:00.033Z,30.20
2023-04-19T23:07:30.262Z,30.10
2023-04-19T23:09:59.857Z,30.20
2023-04-19T23:12:32.479Z,30.20
2023-04-19T23:15:03.546Z,30.20
2023-04-19T23:17:34.856Z,30.20
2023-04-19T23:20:06.490Z,30.20
2023-04-19T23:22:36.377Z,30.10
2023-04-19T23:25:07.472Z,30.00
2023-04-19T23:27:38.142Z,30.00
2023-04-19T23:30:09.280Z,30.00
2023-04-19T23:32:39.462Z,30.00
2023-04-19T23:35:11.550Z,30.00
2023-04-19T23:37:42.486Z,29.90
2023-04-19T23:40:12.669Z,30.00
2023-04-19T23:42:42.341Z,30.00
2023-04-19T23:45:12.911Z,29.90
2023-04-19T23:47:42.810Z,30.00
2023-04-19T23:50:12.992Z,30.00
2023-04-19T23:52:42.796Z,30.00
2023-04-19T23:55:12.749Z,30.20
2023-04-19T23:57:42.518Z,30.20
